createdAt,value
2022-09-20T00:01:29.572Z,96200.94
2022-09-20T00:03:58.374Z,96210.34
2022-09-20T00:06:30.743Z,96203.47
2022-09-20T00:08:57.932Z,96203.69
2022-09-20T00:11:29.878Z,96207.63
2022-09-20T00:13:59.313Z,96202.56
2022-09-20T00:16:35.782Z,96203.69
2022-09-20T00:19:06.859Z,96197.50
2022-09-20T00:21:36.385Z,96203.94
2022-09-20T00:24:07.145Z,96204.44
2022-09-20T00:26:33.847Z,96207.19
2022-09-20T00:29:02.632Z,96199.38
2022-09-20T00:31:32.335Z,96210.00
2022-09-20T00:34:18.100Z,96204.03
2022-09-20T00:36:45.318Z,96210.72
2022-09-20T00:39:19.524Z,96210.56
2022-09-20T00:41:54.827Z,96217.41
2022-09-20T00:44:48.086Z,96211.75
2022-09-20T00:47:30.974Z,96202.66
2022-09-20T00:50:12.673Z,96210.97
2022-09-20T00:52:44.139Z,96206.56
2022-09-20T00:55:13.848Z,96210.31
2022-09-20T00:57:56.994Z,96203.44
2022-09-20T01:00:29.884Z,96205.09
2022-09-20T01:09:41.392Z,96210.78
2022-09-20T01:12:16.539Z,96209.97
2022-09-20T01:15:02.697Z,96208.97
2022-09-20T01:21:04.799Z,96218.34
2022-09-20T01:23:52.073Z,96216.19
2022-09-20T01:26:40.126Z,96207.19
2022-09-20T01:29:17.301Z,96209.97
2022-09-20T01:31:50.186Z,96208.84
2022-09-20T01:34:34.287Z,96212.41
2022-09-20T01:37:19.597Z,96203.94
2022-09-20T01:39:58.716Z,96211.06
2022-09-20T01:42:36.277Z,96213.28
2022-09-20T01:45:22.754Z,96213.28
2022-09-20T01:48:13.637Z,96214.41
2022-09-20T01:51:00.478Z,96219.63
2022-09-20T01:53:57.965Z,96216.91
2022-09-20T01:56:43.212Z,96220.47
2022-09-20T01:59:24.515Z,96223.06
2022-09-20T02:01:54.181Z,96217.34
2022-09-20T02:04:52.646Z,96220.41
2022-09-20T02:07:28.293Z,96221.72
2022-09-20T02:10:34.798Z,96221.91
2022-09-20T02:13:06.943Z,96215.50
2022-09-20T02:16:08.688Z,96220.03
2022-09-20T02:18:35.446Z,96221.00
2022-09-20T02:21:05.401Z,96221.00
2022-09-20T02:23:58.049Z,96231.06
2022-09-20T02:26:40.341Z,96226.16
2022-09-20T02:29:07.160Z,96230.03
2022-09-20T02:32:01.806Z,96227.97
2022-09-20T02:34:56.235Z,96229.44
2022-09-20T02:37:31.939Z,96233.28
2022-09-20T02:40:17.230Z,96237.09
2022-09-20T02:42:55.139Z,96231.88
2022-09-20T02:45:52.178Z,96243.06
2022-09-20T02:48:26.889Z,96244.16
2022-09-20T02:51:07.010Z,96242.34
2022-09-20T02:53:57.706Z,96242.47
2022-09-20T02:56:37.963Z,96248.59
2022-09-20T02:59:16.504Z,96246.84
2022-09-20T03:02:15.329Z,96249.44
2022-09-20T03:04:42.610Z,96241.22
2022-09-20T03:07:25.971Z,96246.41
2022-09-20T03:10:07.499Z,96244.03
2022-09-20T03:12:39.988Z,96247.91
2022-09-20T03:15:25.332Z,96245.75
2022-09-20T03:18:01.066Z,96248.59
2022-09-20T03:20:33.520Z,96252.38
2022-09-20T03:23:15.970Z,96245.28
2022-09-20T03:26:21.480Z,96245.97
2022-09-20T03:29:33.615Z,96248.41
2022-09-20T03:32:19.512Z,96241.88
2022-09-20T03:35:08.387Z,96252.44
2022-09-20T03:38:09.010Z,96254.41
2022-09-20T03:40:59.790Z,96249.63
2022-09-20T03:43:52.403Z,96252.38
2022-09-20T03:46:29.590Z,96252.97
2022-09-20T03:49:05.699Z,96259.81
2022-09-20T03:51:45.321Z,96266.22
2022-09-20T03:54:37.172Z,96265.09
2022-09-20T03:57:19.481Z,96261.47
2022-09-20T04:00:08.288Z,96266.00
2022-09-20T04:03:03.123Z,96267.88
2022-09-20T04:05:53.922Z,96266.22
2022-09-20T04:08:48.114Z,96265.09
2022-09-20T04:11:30.118Z,96266.47
2022-09-20T04:14:11.300Z,96263.31
2022-09-20T04:16:46.126Z,96272.13
2022-09-20T04:19:17.899Z,96273.38
2022-09-20T04:21:53.870Z,96271.28
2022-09-20T04:24:39.153Z,96272.25
2022-09-20T04:27:25.554Z,96274.84
2022-09-20T04:29:58.234Z,96272.41
2022-09-20T04:33:07.407Z,96276.50
2022-09-20T04:36:04.323Z,96269.88
2022-09-20T04:38:31.464Z,96283.25
2022-09-20T04:41:16.730Z,96278.72
2022-09-20T04:44:06.501Z,96273.50
2022-09-20T04:46:56.174Z,96278.72
2022-09-20T04:49:38.017Z,96286.41
2022-09-20T04:52:10.386Z,96279.41
2022-09-20T04:55:12.234Z,96286.72
2022-09-20T04:57:53.910Z,96278.59
2022-09-20T05:00:24.136Z,96282.00
2022-09-20T05:03:25.965Z,96286.03
2022-09-20T05:06:12.332Z,96281.22
2022-09-20T05:08:58.033Z,96288.41
2022-09-20T05:11:47.262Z,96288.03
2022-09-20T05:14:34.854Z,96286.03
2022-09-20T05:17:32.485Z,96297.88
2022-09-20T05:20:24.131Z,96293.03
2022-09-20T05:23:04.602Z,96293.09
2022-09-20T05:25:40.457Z,96294.44
2022-09-20T05:28:19.379Z,96288.78
2022-09-20T05:30:58.242Z,96288.94
2022-09-20T05:33:52.410Z,96297.19
2022-09-20T05:36:43.998Z,96297.47
2022-09-20T05:39:22.597Z,96299.13
2022-09-20T05:42:01.757Z,96288.41
2022-09-20T05:44:37.252Z,96295.25
2022-09-20T05:47:31.559Z,96296.78
2022-09-20T05:50:28.432Z,96299.31
2022-09-20T05:53:21.592Z,96309.38
2022-09-20T05:56:02.876Z,96311.28
2022-09-20T05:59:03.201Z,96311.28
2022-09-20T06:02:10.385Z,96308.00
2022-09-20T06:04:50.400Z,96312.56
2022-09-20T06:07:28.730Z,96312.03
2022-09-20T06:10:24.686Z,96317.03
2022-09-20T06:13:20.697Z,96318.63
2022-09-20T06:16:05.746Z,96324.44
2022-09-20T06:18:44.388Z,96316.88
2022-09-20T06:21:25.087Z,96323.03
2022-09-20T06:23:58.420Z,96321.25
2022-09-20T06:26:29.540Z,96327.66
2022-09-20T06:29:02.236Z,96319.91
2022-09-20T06:31:29.154Z,96324.84
2022-09-20T06:34:10.076Z,96328.78
2022-09-20T06:36:58.125Z,96331.25
2022-09-20T06:39:46.228Z,96334.91
2022-09-20T06:42:12.862Z,96338.47
2022-09-20T06:44:43.264Z,96335.84
2022-09-20T06:47:15.154Z,96338.16
2022-09-20T06:49:46.822Z,96337.34
2022-09-20T06:52:22.186Z,96341.00
2022-09-20T06:54:51.879Z,96341.53
2022-09-20T06:57:23.561Z,96341.06
2022-09-20T06:59:50.178Z,96350.09
2022-09-20T07:02:16.873Z,96339.91
2022-09-20T07:04:44.636Z,96348.59
2022-09-20T07:07:17.383Z,96358.84
2022-09-20T07:09:43.977Z,96353.97
2022-09-20T07:12:11.734Z,96347.50
2022-09-20T07:14:39.145Z,96349.50
2022-09-20T07:17:06.633Z,96355.38
2022-09-20T07:19:33.961Z,96354.66
2022-09-20T07:22:00.610Z,96358.53
2022-09-20T07:24:27.239Z,96362.47
2022-09-20T07:26:59.713Z,96366.13
2022-09-20T07:29:27.383Z,96363.91
2022-09-20T07:31:54.634Z,96367.31
2022-09-20T07:34:21.344Z,96370.88
2022-09-20T07:36:48.436Z,96373.66
2022-09-20T07:39:15.328Z,96381.78
2022-09-20T07:41:43.434Z,96384.53
2022-09-20T07:44:24.419Z,96388.19
2022-09-20T07:46:52.756Z,96388.69
2022-09-20T07:49:20.464Z,96384.44
2022-09-20T07:51:47.602Z,96385.63
2022-09-20T07:54:14.331Z,96386.53
2022-09-20T07:56:41.609Z,96381.06
2022-09-20T07:59:10.263Z,96385.91
2022-09-20T08:01:37.754Z,96388.59
2022-09-20T08:04:08.950Z,96400.13
2022-09-20T08:06:43.676Z,96401.75
2022-09-20T08:09:11.580Z,96403.69
2022-09-20T08:11:39.592Z,96404.16
2022-09-20T08:14:09.065Z,96400.53
2022-09-20T08:16:47.422Z,96398.88
2022-09-20T08:19:22.929Z,96404.13
2022-09-20T08:21:53.946Z,96406.72
2022-09-20T08:24:20.534Z,96409.00
2022-09-20T08:26:48.440Z,96409.78
2022-09-20T08:29:15.524Z,96407.84
2022-09-20T08:31:42.528Z,96413.13
2022-09-20T08:34:12.379Z,96414.00
2022-09-20T08:36:41.928Z,96404.91
2022-09-20T08:41:58.297Z,96401.81
2022-09-20T08:44:35.973Z,96413.44
2022-09-20T08:47:22.656Z,96409.91
2022-09-20T08:49:56.734Z,96413.47
2022-09-20T08:52:37.209Z,96410.41
2022-09-20T08:55:16.704Z,96413.38
2022-09-20T08:57:44.690Z,96408.38
2022-09-20T09:00:18.513Z,96412.81
2022-09-20T09:02:45.954Z,96405.97
2022-09-20T09:05:33.161Z,96408.28
2022-09-20T09:08:04.614Z,96411.22
2022-09-20T09:10:45.904Z,96407.81
2022-09-20T09:13:22.418Z,96413.84
2022-09-20T09:15:55.678Z,96412.38
2022-09-20T09:18:31.650Z,96413.06
2022-09-20T09:20:59.284Z,96416.50
2022-09-20T09:23:27.624Z,96416.34
2022-09-20T09:25:55.909Z,96421.22
2022-09-20T09:28:29.363Z,96417.31
2022-09-20T09:31:12.667Z,96425.00
2022-09-20T09:33:45.244Z,96421.38
2022-09-20T09:36:25.399Z,96423.34
2022-09-20T09:39:16.632Z,96427.47
2022-09-20T09:41:44.514Z,96431.53
2022-09-20T09:44:27.703Z,96426.81
2022-09-20T09:46:57.024Z,96432.53
2022-09-20T09:49:25.056Z,96426.81
2022-09-20T09:52:13.278Z,96424.84
2022-09-20T09:55:00.123Z,96436.13
2022-09-20T09:57:53.965Z,96427.28
2022-09-20T10:00:22.973Z,96435.63
2022-09-20T10:03:17.642Z,96437.78
2022-09-20T10:06:09.260Z,96431.56
2022-09-20T10:08:42.080Z,96425.16
2022-09-20T10:11:24.036Z,96427.13
2022-09-20T10:14:22.519Z,96432.22
2022-09-20T10:17:23.067Z,96430.88
2022-09-20T10:20:04.473Z,96421.44
2022-09-20T10:23:34.392Z,96423.34
2022-09-20T10:25:55.076Z,96426.59
2022-09-20T10:28:28.162Z,96415.41
2022-09-20T10:31:27.603Z,96423.94
2022-09-20T10:34:09.745Z,96421.34
2022-09-20T10:36:52.161Z,96426.31
2022-09-20T10:39:27.417Z,96426.31
2022-09-20T10:42:15.730Z,96425.66
2022-09-20T10:45:42.040Z,96433.31
2022-09-20T10:48:26.912Z,96432.81
2022-09-20T10:51:35.427Z,96440.69
2022-09-20T10:54:38.190Z,96438.44
2022-09-20T10:57:22.725Z,96442.03
2022-09-20T10:59:55.974Z,96440.25
2022-09-20T11:02:31.438Z,96444.50
2022-09-20T11:05:21.038Z,96445.00
2022-09-20T11:08:13.980Z,96445.47
2022-09-20T11:10:55.138Z,96448.91
2022-09-20T11:13:38.699Z,96448.22
2022-09-20T11:16:17.439Z,96454.63
2022-09-20T11:19:13.269Z,96451.16
2022-09-20T11:22:05.875Z,96462.31
2022-09-20T11:24:44.065Z,96468.38
2022-09-20T11:27:19.931Z,96476.13
2022-09-20T11:29:55.578Z,96466.63
2022-09-20T11:32:25.679Z,96464.31
2022-09-20T11:34:57.011Z,96467.91
2022-09-20T11:37:30.269Z,96468.22
2022-09-20T11:40:01.850Z,96462.03
2022-09-20T11:42:33.272Z,96467.94
2022-09-20T11:44:59.966Z,96459.75
2022-09-20T11:47:56.037Z,96461.53
2022-09-20T11:50:43.163Z,96464.44
2022-09-20T11:53:26.267Z,96467.16
2022-09-20T11:56:07.832Z,96458.38
2022-09-20T11:58:48.308Z,96456.66
2022-09-20T12:01:41.482Z,96449.53
2022-09-20T12:04:32.696Z,96446.94
2022-09-20T12:07:17.953Z,96446.34
2022-09-20T12:09:52.038Z,96454.81
2022-09-20T12:12:24.803Z,96453.41
2022-09-20T12:14:59.785Z,96454.31
2022-09-20T12:17:44.490Z,96461.16
2022-09-20T12:20:44.815Z,96468.53
2022-09-20T12:23:45.218Z,96464.41
2022-09-20T12:26:37.733Z,96452.00
2022-09-20T12:29:32.978Z,96448.78
2022-09-20T12:32:23.049Z,96449.25
2022-09-20T12:34:49.836Z,96455.16
2022-09-20T12:37:19.284Z,96455.72
2022-09-20T12:39:53.487Z,96448.41
2022-09-20T12:42:21.727Z,96451.59
2022-09-20T12:44:51.190Z,96455.91
2022-09-20T12:47:24.249Z,96460.50
2022-09-20T12:50:17.549Z,96458.41
2022-09-20T12:53:02.586Z,96455.09
2022-09-20T12:55:46.393Z,96452.97
2022-09-20T12:58:15.695Z,96454.50
2022-09-20T13:00:50.244Z,96452.31
2022-09-20T13:03:44.123Z,96451.03
2022-09-20T13:06:14.887Z,96449.00
2022-09-20T13:08:57.155Z,96446.44
2022-09-20T13:11:48.968Z,96450.16
2022-09-20T13:14:22.009Z,96449.41
2022-09-20T13:17:01.177Z,96453.19
2022-09-20T13:19:34.411Z,96445.88
2022-09-20T13:22:00.958Z,96445.22
2022-09-20T13:24:33.608Z,96435.09
2022-09-20T13:27:06.592Z,96432.19
2022-09-20T13:29:38.870Z,96431.44
2022-09-20T13:32:25.231Z,96436.47
2022-09-20T13:35:09.891Z,96433.81
2022-09-20T13:37:42.978Z,96437.50
2022-09-20T13:40:32.060Z,96443.72
2022-09-20T13:43:22.150Z,96442.25
2022-09-20T13:45:53.990Z,96441.44
2022-09-20T13:48:25.480Z,96449.47
2022-09-20T13:50:53.901Z,96444.22
2022-09-20T13:53:40.675Z,96445.44
2022-09-20T13:56:25.885Z,96445.28
2022-09-20T13:58:53.560Z,96442.81
2022-09-20T14:01:31.162Z,96451.25
2022-09-20T14:04:05.720Z,96444.34
2022-09-20T14:06:32.912Z,96449.41
2022-09-20T14:09:08.393Z,96453.03
2022-09-20T14:11:37.810Z,96442.56
2022-09-20T14:14:08.037Z,96444.63
2022-09-20T14:16:46.742Z,96444.78
2022-09-20T14:19:20.244Z,96453.97
2022-09-20T14:21:48.237Z,96451.16
2022-09-20T14:24:17.994Z,96456.28
2022-09-20T14:27:02.312Z,96455.84
2022-09-20T14:29:34.685Z,96454.56
2022-09-20T14:32:07.625Z,96456.03
2022-09-20T14:34:40.076Z,96454.41
2022-09-20T14:37:36.904Z,96455.19
2022-09-20T14:40:17.398Z,96457.84
2022-09-20T14:42:47.138Z,96459.47
2022-09-20T14:45:24.749Z,96462.56
2022-09-20T14:48:10.700Z,96469.81
2022-09-20T14:50:43.990Z,96461.75
2022-09-20T14:53:13.571Z,96461.13
2022-09-20T14:55:54.754Z,96461.66
2022-09-20T14:58:21.420Z,96464.47
2022-09-20T15:00:54.158Z,96460.47
2022-09-20T15:03:31.178Z,96458.38
2022-09-20T15:05:58.717Z,96465.22
2022-09-20T15:08:26.007Z,96462.03
2022-09-20T15:10:52.655Z,96467.25
2022-09-20T15:13:19.462Z,96461.06
2022-09-20T15:15:51.179Z,96463.94
2022-09-20T15:18:26.735Z,96464.66
2022-09-20T15:20:54.931Z,96469.16
2022-09-20T15:23:22.124Z,96470.13
2022-09-20T15:25:54.454Z,96473.38
2022-09-20T15:28:21.204Z,96470.28
2022-09-20T15:30:52.733Z,96474.06
2022-09-20T15:33:21.518Z,96484.44
2022-09-20T15:35:48.712Z,96478.41
2022-09-20T15:38:18.503Z,96481.50
2022-09-20T15:40:48.157Z,96482.28
2022-09-20T15:43:21.923Z,96484.44
2022-09-20T15:45:51.605Z,96473.16
2022-09-20T15:48:22.975Z,96480.19
2022-09-20T15:51:03.511Z,96492.84
2022-09-20T15:53:32.157Z,96492.84
2022-09-20T15:56:02.791Z,96492.38
2022-09-20T15:58:36.260Z,96498.69
2022-09-20T16:01:08.379Z,96505.47
2022-09-20T16:03:36.670Z,96498.78
2022-09-20T16:06:06.278Z,96507.63
2022-09-20T16:08:34.839Z,96509.78
2022-09-20T16:11:01.881Z,96514.22
2022-09-20T16:13:28.893Z,96525.38
2022-09-20T16:16:00.863Z,96520.53
2022-09-20T16:18:47.835Z,96531.06
2022-09-20T16:21:17.624Z,96534.41
2022-09-20T16:23:54.861Z,96529.00
2022-09-20T16:26:23.480Z,96534.09
2022-09-20T16:28:50.859Z,96533.44
2022-09-20T16:31:40.832Z,96541.63
2022-09-20T16:34:07.579Z,96544.41
2022-09-20T16:36:34.451Z,96541.91
2022-09-20T16:39:01.284Z,96549.25
2022-09-20T16:41:28.989Z,96544.50
2022-09-20T16:43:56.143Z,96543.19
2022-09-20T16:46:27.402Z,96555.28
2022-09-20T16:48:55.579Z,96555.09
2022-09-20T16:51:26.132Z,96558.19
2022-09-20T16:53:56.136Z,96559.47
2022-09-20T16:56:29.624Z,96572.53
2022-09-20T16:58:56.945Z,96582.03
2022-09-20T17:01:23.591Z,96585.97
2022-09-20T17:03:50.489Z,96599.09
2022-09-20T17:06:17.206Z,96606.59
2022-09-20T17:08:46.886Z,96608.97
2022-09-20T17:11:16.658Z,96608.41
2022-09-20T17:13:45.282Z,96609.94
2022-09-20T17:16:14.630Z,96613.53
2022-09-20T17:18:42.825Z,96612.81
2022-09-20T17:21:13.818Z,96618.47
2022-09-20T17:23:41.500Z,96615.03
2022-09-20T17:26:23.087Z,96608.81
2022-09-20T17:28:56.548Z,96612.31
2022-09-20T17:31:29.009Z,96616.66
2022-09-20T17:34:00.541Z,96631.91
2022-09-20T17:36:32.262Z,96624.22
2022-09-20T17:39:04.382Z,96632.56
2022-09-20T17:41:33.857Z,96633.94
2022-09-20T17:44:02.772Z,96627.72
2022-09-20T17:46:34.004Z,96633.94
2022-09-20T17:49:03.002Z,96629.78
2022-09-20T17:51:32.080Z,96625.03
2022-09-20T17:53:59.499Z,96631.06
2022-09-20T17:56:30.982Z,96629.28
2022-09-20T17:58:59.659Z,96633.38
2022-09-20T18:01:27.607Z,96634.22
2022-09-20T18:03:56.391Z,96637.38
2022-09-20T18:06:28.832Z,96637.72
2022-09-20T18:09:04.492Z,96642.50
2022-09-20T18:11:40.730Z,96642.78
2022-09-20T18:14:10.344Z,96644.25
2022-09-20T18:16:38.824Z,96647.56
2022-09-20T18:19:07.195Z,96648.84
2022-09-20T18:21:36.114Z,96655.59
2022-09-20T18:24:05.968Z,96666.66
2022-09-20T18:26:32.945Z,96669.25
2022-09-20T18:29:05.772Z,96667.16
2022-09-20T18:31:38.651Z,96675.13
2022-09-20T18:34:07.594Z,96669.31
2022-09-20T18:36:38.448Z,96676.56
2022-09-20T18:39:06.099Z,96673.19
2022-09-20T18:41:37.694Z,96686.75
2022-09-20T18:44:07.150Z,96681.13
2022-09-20T18:46:37.950Z,96687.63
2022-09-20T18:49:06.136Z,96692.22
2022-09-20T18:51:38.570Z,96692.41
2022-09-20T18:54:06.139Z,96702.50
2022-09-20T18:56:35.003Z,96693.59
2022-09-20T18:59:23.439Z,96695.94
2022-09-20T19:02:17.560Z,96700.25
2022-09-20T19:04:56.845Z,96695.31
2022-09-20T19:07:54.050Z,96698.19
2022-09-20T19:10:43.962Z,96695.88
2022-09-20T19:13:35.887Z,96703.72
2022-09-20T19:16:18.608Z,96704.91
2022-09-20T19:19:14.944Z,96712.72
2022-09-20T19:21:58.568Z,96712.50
2022-09-20T19:24:33.798Z,96711.53
2022-09-20T19:27:00.622Z,96709.72
2022-09-20T19:29:28.520Z,96721.38
2022-09-20T19:31:57.583Z,96718.66
2022-09-20T19:34:26.840Z,96721.28
2022-09-20T19:37:18.711Z,96731.56
2022-09-20T19:40:04.363Z,96729.47
2022-09-20T19:42:47.658Z,96728.69
2022-09-20T19:45:49.071Z,96726.19
2022-09-20T19:48:34.072Z,96729.38
2022-09-20T19:51:04.545Z,96730.88
2022-09-20T19:53:31.512Z,96739.38
2022-09-20T19:56:08.037Z,96738.13
2022-09-20T19:58:35.539Z,96740.56
2022-09-20T20:01:02.308Z,96733.59
2022-09-20T20:03:31.350Z,96742.53
2022-09-20T20:06:17.879Z,96750.78
2022-09-20T20:08:59.841Z,96752.41
2022-09-20T20:11:41.468Z,96753.50
2022-09-20T20:14:36.491Z,96752.00
2022-09-20T20:17:21.382Z,96755.56
2022-09-20T20:20:04.066Z,96759.69
2022-09-20T20:22:56.893Z,96755.44
2022-09-20T20:25:47.732Z,96763.13
2022-09-20T20:28:14.450Z,96764.91
2022-09-20T20:30:41.138Z,96763.66
2022-09-20T20:33:08.138Z,96766.28
2022-09-20T20:35:34.867Z,96769.72
2022-09-20T20:38:01.484Z,96773.97
2022-09-20T20:40:28.441Z,96776.19
2022-09-20T20:43:02.079Z,96777.25
2022-09-20T20:45:29.650Z,96781.25
2022-09-20T20:47:58.611Z,96779.59
2022-09-20T20:50:27.101Z,96781.81
2022-09-20T20:52:55.677Z,96781.09
2022-09-20T20:55:23.116Z,96784.09
2022-09-20T20:57:58.279Z,96785.22
2022-09-20T21:00:28.729Z,96790.56
2022-09-20T21:03:01.960Z,96794.28
2022-09-20T21:05:29.196Z,96789.47
2022-09-20T21:07:56.407Z,96794.69
2022-09-20T21:10:23.760Z,96797.97
2022-09-20T21:12:54.170Z,96793.88
2022-09-20T21:15:21.503Z,96793.56
2022-09-20T21:17:55.001Z,96793.88
2022-09-20T21:20:22.506Z,96796.88
2022-09-20T21:22:49.105Z,96794.41
2022-09-20T21:25:15.786Z,96789.75
2022-09-20T21:27:42.732Z,96799.47
2022-09-20T21:30:09.914Z,96795.50
2022-09-20T21:32:36.665Z,96797.25
2022-09-20T21:35:03.520Z,96792.97
2022-09-20T21:37:30.559Z,96802.16
2022-09-20T21:39:57.178Z,96802.97
2022-09-20T21:42:25.507Z,96799.28
2022-09-20T21:44:53.029Z,96799.03
2022-09-20T21:47:20.617Z,96795.56
2022-09-20T21:49:47.720Z,96799.28
2022-09-20T21:52:14.431Z,96803.53
2022-09-20T21:54:41.099Z,96807.78
2022-09-20T21:57:08.008Z,96800.53
2022-09-20T21:59:34.667Z,96808.59
2022-09-20T22:02:01.277Z,96799.25
2022-09-20T22:04:29.207Z,96803.53
2022-09-20T22:06:55.810Z,96808.34
2022-09-20T22:09:24.203Z,96814.34
2022-09-20T22:11:50.847Z,96821.47
2022-09-20T22:14:19.735Z,96819.00
2022-09-20T22:16:48.556Z,96818.44
2022-09-20T22:19:17.236Z,96818.69
2022-09-20T22:21:46.043Z,96817.91
2022-09-20T22:24:14.585Z,96820.34
2022-09-20T22:26:44.040Z,96828.06
2022-09-20T22:29:11.506Z,96822.84
2022-09-20T22:31:44.897Z,96818.03
2022-09-20T22:34:15.498Z,96821.03
2022-09-20T22:36:42.591Z,96816.78
2022-09-20T22:39:11.064Z,96814.56
2022-09-20T22:41:39.450Z,96805.22
2022-09-20T22:44:06.290Z,96805.63
2022-09-20T22:46:33.757Z,96809.22
2022-09-20T22:49:00.804Z,96813.81
2022-09-20T22:51:31.111Z,96817.13
2022-09-20T22:53:57.748Z,96817.69
2022-09-20T22:56:26.472Z,96822.25
2022-09-20T22:58:55.306Z,96816.50
2022-09-20T23:01:30.728Z,96819.66
2022-09-20T23:04:00.947Z,96817.91
2022-09-20T23:06:32.157Z,96828.06
2022-09-20T23:09:03.366Z,96828.88
2022-09-20T23:11:30.674Z,96823.16
2022-09-20T23:14:00.882Z,96827.81
2022-09-20T23:16:29.941Z,96832.78
2022-09-20T23:18:58.813Z,96827.44
2022-09-20T23:21:25.696Z,96827.84
2022-09-20T23:23:54.770Z,96833.34
2022-09-20T23:26:21.696Z,96827.88
2022-09-20T23:28:57.474Z,96833.63
2022-09-20T23:31:24.829Z,96835.94
2022-09-20T23:33:59.832Z,96837.16
2022-09-20T23:36:29.287Z,96836.44
2022-09-20T23:38:59.855Z,96838.38
2022-09-20T23:41:27.898Z,96835.91
2022-09-20T23:43:55.333Z,96837.53
2022-09-20T23:46:23.413Z,96838.81
2022-09-20T23:48:50.869Z,96837.69
2022-09-20T23:51:20.020Z,96836.63
2022-09-20T23:53:46.779Z,96838.84
2022-09-20T23:56:14.296Z,96849.66
2022-09-20T23:58:43.832Z,96851.72
